| time (UTC) | temp F | wind direction | speed MPH | gust MPH | rain 1hr in | rain 24hr in | rain mn in | humidity % | barometer mb |
| 20260902031454 | 71 | 171 | 0.0 | 0.0 | 0.00 | 0.00 | 0.00 | 48 | 1007.2 |
| 20260902030323 | 71 | 171 | 0.0 | 0.0 | 0.00 | 0.00 | 0.00 | 48 | 1007.2 |
| 20260902023803 | 72 | 174 | 0.0 | 0.0 | 0.00 | 0.00 | 0.00 | 47 | 1007.2 |
| 20260902022612 | 73 | 174 | 0.0 | 0.0 | 0.00 | 0.00 | 0.00 | 46 | 1007.1 |
| 20260902020120 | 73 | 174 | 0.0 | 0.0 | 0.00 | 0.00 | 0.00 | 45 | 1007.2 |
| 20260902014911 | 74 | 174 | 0.0 | 0.0 | 0.00 | 0.00 | 0.00 | 42 | 1007.2 |
| 20260902012335 | 74 | 173 | 0.0 | 0.0 | 0.00 | 0.00 | 0.00 | 41 | 1007.4 |
| 20260902011205 | 75 | 153 | 0.0 | 0.0 | 0.00 | 0.00 | 0.00 | 39 | 1007.4 |
| 20260902005957 | 75 | 127 | 0.0 | 0.0 | 0.00 | 0.00 | 0.00 | 40 | 1007.4 |
| 20260902004729 | 76 | 119 | 0.0 | 0.0 | 0.00 | 0.00 | 0.00 | 40 | 1007.5 |
| 20260902003503 | 74 | 145 | 0.0 | 0.0 | 0.00 | 0.00 | 0.00 | 40 | 1007.4 |
| 20260902002301 | 74 | 119 | 0.0 | 0.0 | 0.00 | 0.00 | 0.00 | 40 | 1007.3 |
| 20260902001044 | 74 | 169 | 0.0 | 0.0 | 0.00 | 0.00 | 0.00 | 40 | 1007.4 |
| 20260901235834 | 74 | 186 | 0.0 | 0.0 | 0.00 | 0.00 | 0.00 | 40 | 1007.5 |
| 20260901234607 | 74 | 176 | 0.0 | 0.0 | 0.00 | 0.00 | 0.00 | 41 | 1007.8 |
| 20260901233333 | 74 | 176 | 2.0 | 14.0 | 0.00 | 0.00 | 0.00 | 39 | 1008.0 |
| 20260901232125 | 75 | 142 | 0.0 | 10.0 | 0.00 | 0.00 | 0.00 | 40 | 1008.1 |
| 20260901230953 | 75 | 132 | 0.0 | 0.0 | 0.00 | 0.00 | 0.00 | 36 | 1008.1 |
| 20260901225814 | 76 | 155 | 0.0 | 0.0 | 0.00 | 0.00 | 0.00 | 36 | 1008.2 |
| 20260901224632 | 76 | 154 | 0.0 | 0.0 | 0.00 | 0.00 | 0.00 | 35 | 1008.1 |
| 20260901223413 | 76 | 123 | 0.0 | 0.0 | 0.00 | 0.00 | 0.00 | 35 | 1008.0 |
| 20260901222225 | 75 | 124 | 0.0 | 0.0 | 0.00 | 0.00 | 0.00 | 35 | 1008.1 |
| 20260901220952 | 75 | 147 | 1.0 | 0.0 | 0.00 | 0.00 | 0.00 | 35 | 1008.2 |
| 20260901215729 | 76 | 152 | 1.0 | 15.0 | 0.00 | 0.00 | 0.00 | 37 | 1008.3 |
| 20260901213201 | 76 | 182 | 0.0 | 6.0 | 0.00 | 0.00 | 0.00 | 33 | 1008.0 |
| 20260901212005 | 76 | 173 | 0.0 | 9.0 | 0.00 | 0.00 | 0.00 | 36 | 1008.2 |
| 20260901210804 | 76 | 175 | 0.0 | 0.0 | 0.00 | 0.00 | 0.00 | 40 | 1008.3 |
| 20260901205617 | 76 | 44 | 0.0 | 0.0 | 0.00 | 0.00 | 0.00 | 39 | 1008.2 |
| 20260901204406 | 76 | 45 | 0.0 | 0.0 | 0.00 | 0.00 | 0.00 | 40 | 1008.1 |
| 20260901203235 | 77 | 348 | 0.0 | 0.0 | 0.00 | 0.00 | 0.00 | 40 | 1007.8 |
| 20260901202048 | 76 | 350 | 0.0 | 0.0 | 0.00 | 0.00 | 0.00 | 40 | 1007.2 |
| 20260901200907 | 76 | 355 | 0.0 | 0.0 | 0.00 | 0.00 | 0.00 | 38 | 1007.2 |
| 20260901195706 | 76 | 348 | 0.0 | 0.0 | 0.00 | 0.00 | 0.00 | 40 | 1007.2 |
| 20260901194524 | 76 | 316 | 0.0 | 0.0 | 0.00 | 0.00 | 0.00 | 38 | 1007.2 |
| 20260901193339 | 77 | 19 | 0.0 | 0.0 | 0.00 | 0.00 | 0.00 | 38 | 1007.3 |
| 20260901192104 | 76 | 18 | 0.0 | 0.0 | 0.00 | 0.00 | 0.00 | 38 | 1007.3 |
| 20260901190920 | 77 | 42 | 0.0 | 0.0 | 0.00 | 0.00 | 0.00 | 39 | 1007.3 |
| 20260901185656 | 76 | 49 | 3.0 | 15.0 | 0.00 | 0.00 | 0.00 | 39 | 1007.2 |
| 20260901184511 | 74 | 38 | 1.0 | 12.0 | 0.00 | 0.00 | 0.00 | 41 | 1007.4 |
| 20260901183338 | 74 | 46 | 2.0 | 12.0 | 0.00 | 0.00 | 0.00 | 42 | 1007.4 |
| 20260901182143 | 73 | 47 | 0.0 | 9.0 | 0.00 | 0.00 | 0.00 | 43 | 1007.7 |
| 20260901175603 | 71 | 43 | 4.0 | 16.0 | 0.00 | 0.00 | 0.00 | 47 | 1007.6 |
| 20260901174347 | 70 | 5 | 2.0 | 10.0 | 0.00 | 0.00 | 0.00 | 48 | 1008.0 |
| 20260901173109 | 69 | 24 | 3.0 | 13.0 | 0.00 | 0.00 | 0.00 | 51 | 1008.0 |
| 20260901170548 | 68 | 18 | 1.0 | 7.0 | 0.00 | 0.00 | 0.00 | 53 | 1008.5 |
| 20260901165323 | 67 | 29 | 3.0 | 17.0 | 0.00 | 0.00 | 0.00 | 55 | 1008.6 |
| 20260901164105 | 66 | 40 | 3.0 | 15.0 | 0.00 | 0.00 | 0.00 | 55 | 1008.7 |
| 20260901161641 | 65 | 46 | 3.0 | 12.0 | 0.00 | 0.00 | 0.00 | 58 | 1008.9 |
| 20260901160511 | 65 | 23 | 2.0 | 12.0 | 0.00 | 0.00 | 0.00 | 59 | 1009.0 |
| 20260901153948 | 63 | 57 | 3.0 | 15.0 | 0.00 | 0.00 | 0.00 | 63 | 1009.3 |
| 20260901152758 | 62 | 50 | 3.0 | 14.0 | 0.00 | 0.00 | 0.00 | 64 | 1009.5 |
| 20260901151550 | 61 | 28 | 0.0 | 5.0 | 0.00 | 0.00 | 0.00 | 66 | 1009.6 |
| 20260901150414 | 60 | 36 | 0.0 | 9.0 | 0.00 | 0.00 | 0.00 | 67 | 1009.7 |
| 20260901145201 | 59 | 39 | 0.0 | 5.0 | 0.00 | 0.00 | 0.00 | 69 | 1009.8 |
| 20260901142629 | 58 | 62 | 0.0 | 0.0 | 0.00 | 0.00 | 0.00 | 72 | 1009.7 |
| 20260901141406 | 57 | 53 | 0.0 | 0.0 | 0.00 | 0.00 | 0.00 | 72 | 1009.8 |
| 20260901140209 | 56 | 42 | 0.0 | 0.0 | 0.00 | 0.00 | 0.00 | 73 | 1009.9 |
| 20260901135020 | 56 | 74 | 0.0 | 9.0 | 0.00 | 0.00 | 0.00 | 74 | 1009.8 |
| 20260901133824 | 55 | 61 | 0.0 | 0.0 | 0.00 | 0.00 | 0.00 | 74 | 1009.8 |
| 20260901132645 | 55 | 58 | 0.0 | 0.0 | 0.00 | 0.00 | 0.00 | 73 | 1009.7 |
| 20260901131455 | 56 | 64 | 0.0 | 0.0 | 0.00 | 0.00 | 0.00 | 73 | 1009.7 |
| 20260901130220 | 56 | 67 | 0.0 | 0.0 | 0.00 | 0.00 | 0.00 | 73 | 1009.8 |
| 20260901124957 | 56 | 64 | 0.0 | 0.0 | 0.00 | 0.00 | 0.00 | 72 | 1009.9 |
| 20260901123822 | 56 | 87 | 0.0 | 0.0 | 0.00 | 0.00 | 0.00 | 73 | 1009.9 |
| 20260901122635 | 56 | 55 | 0.0 | 0.0 | 0.00 | 0.00 | 0.00 | 72 | 1009.9 |
| 20260901121355 | 56 | 53 | 0.0 | 0.0 | 0.00 | 0.00 | 0.00 | 71 | 1009.9 |
| 20260901120117 | 56 | 92 | 0.0 | 0.0 | 0.00 | 0.00 | 0.00 | 70 | 1009.8 |
| 20260901114929 | 57 | 103 | 0.0 | 0.0 | 0.00 | 0.00 | 0.00 | 70 | 1009.9 |
| 20260901112338 | 57 | 69 | 0.0 | 0.0 | 0.00 | 0.00 | 0.00 | 67 | 1009.8 |
| 20260901111137 | 57 | 81 | 0.0 | 0.0 | 0.00 | 0.00 | 0.00 | 67 | 1009.8 |
| 20260901105944 | 57 | 77 | 0.0 | 0.0 | 0.00 | 0.00 | 0.00 | 67 | 1009.9 |
| 20260901104748 | 57 | 53 | 0.0 | 0.0 | 0.00 | 0.00 | 0.00 | 66 | 1009.9 |
| 20260901102151 | 58 | 82 | 0.0 | 0.0 | 0.00 | 0.00 | 0.00 | 65 | 1009.7 |
| 20260901100945 | 58 | 70 | 0.0 | 0.0 | 0.00 | 0.00 | 0.00 | 64 | 1009.8 |
| 20260901095804 | 59 | 67 | 0.0 | 0.0 | 0.00 | 0.00 | 0.00 | 62 | 1009.9 |
| 20260901094550 | 59 | 57 | 0.0 | 0.0 | 0.00 | 0.00 | 0.00 | 62 | 1009.8 |
| 20260901093332 | 59 | 74 | 0.0 | 0.0 | 0.00 | 0.00 | 0.00 | 63 | 1009.8 |
| 20260901092148 | 59 | 67 | 0.0 | 0.0 | 0.00 | 0.00 | 0.00 | 62 | 1009.9 |
| 20260901091010 | 60 | 57 | 0.0 | 0.0 | 0.00 | 0.00 | 0.00 | 62 | 1009.8 |
| 20260901085833 | 60 | 59 | 0.0 | 0.0 | 0.00 | 0.00 | 0.00 | 62 | 1009.9 |
| 20260901084633 | 60 | 68 | 0.0 | 0.0 | 0.00 | 0.00 | 0.00 | 63 | 1009.9 |
| 20260901083451 | 59 | 68 | 0.0 | 0.0 | 0.00 | 0.00 | 0.00 | 63 | 1009.9 |
| 20260901082223 | 59 | 68 | 0.0 | 0.0 | 0.00 | 0.00 | 0.00 | 62 | 1010.0 |
| 20260901081019 | 59 | 68 | 0.0 | 0.0 | 0.00 | 0.00 | 0.00 | 62 | 1010.1 |
| 20260901075801 | 59 | 68 | 0.0 | 0.0 | 0.00 | 0.00 | 0.00 | 62 | 1010.1 |
| 20260901074626 | 60 | 68 | 0.0 | 0.0 | 0.00 | 0.00 | 0.00 | 61 | 1010.1 |
| 20260901073445 | 61 | 68 | 0.0 | 0.0 | 0.00 | 0.00 | 0.00 | 59 | 1010.2 |
| 20260901070914 | 62 | 68 | 0.0 | 0.0 | 0.00 | 0.00 | 0.00 | 55 | 1010.2 |
| 20260901064348 | 64 | 68 | 0.0 | 0.0 | 0.00 | 0.00 | 0.00 | 50 | 1010.1 |
| 20260901063118 | 64 | 73 | 0.0 | 0.0 | 0.00 | 0.00 | 0.00 | 50 | 1010.1 |
| 20260901061915 | 64 | 69 | 0.0 | 1.0 | 0.00 | 0.00 | 0.00 | 50 | 1010.1 |
| 20260901060739 | 64 | 69 | 0.0 | 0.0 | 0.00 | 0.00 | 0.00 | 50 | 1010.2 |
| 20260901055511 | 65 | 69 | 0.0 | 0.0 | 0.00 | 0.00 | 0.00 | 48 | 1010.3 |
| 20260901054314 | 65 | 43 | 0.0 | 0.0 | 0.00 | 0.00 | 0.00 | 47 | 1010.3 |
| 20260901053057 | 65 | 38 | 0.0 | 0.0 | 0.00 | 0.00 | 0.00 | 46 | 1010.4 |
| 20260901051842 | 65 | 17 | 0.0 | 0.0 | 0.00 | 0.00 | 0.00 | 46 | 1010.4 |
| 20260901050643 | 66 | 17 | 0.0 | 0.0 | 0.00 | 0.00 | 0.00 | 44 | 1010.6 |
| 20260901045445 | 66 | 17 | 0.0 | 0.0 | 0.00 | 0.00 | 0.00 | 43 | 1010.6 |
| 20260901044205 | 67 | 17 | 0.0 | 0.0 | 0.00 | 0.00 | 0.00 | 42 | 1010.7 |
| 20260901043001 | 68 | 17 | 0.0 | 0.0 | 0.00 | 0.00 | 0.00 | 41 | 1010.7 |
| 20260901041741 | 68 | 17 | 0.0 | 0.0 | 0.00 | 0.00 | 0.00 | 41 | 1010.9 |
| 20260901035144 | 69 | 11 | 0.0 | 0.0 | 0.00 | 0.00 | 0.00 | 41 | 1010.9 |
| 20260901033940 | 70 | 350 | 0.0 | 0.0 | 0.00 | 0.00 | 0.00 | 38 | 1010.9 |
| 20260901032740 | 72 | 351 | 0.0 | 0.0 | 0.00 | 0.00 | 0.00 | 36 | 1010.8 |